Terminal Aerodrome Forecast
Issued by NWS Tampa Bay Area, FL

Home | Current Version | Previous Version | Text Only | Print | Product List | Glossary Off
Versions: 1 2 3 4 5 6 7 8 9 10 11 12 13 14 15 16 17

000
FTUS42 KTBW 292100 AAA
TAFSRQ
TAF AMD
KSRQ 292156Z 2922/3018 25008KT P6SM VCTS SCT035CB BKN070
      TEMPO 2922/2924 VRB15G25KT 3SM TSRA BKN025CB
     FM300100 23004KT P6SM SCT025 BKN200
     FM300900 23007KT P6SM VCSH SCT025 BKN070
     FM301400 25009KT P6SM VCTS SCT035CB BKN080=

USA.gov is the U.S. government's official web portal to all federal, state and local government web resources and services.